createdAt,value
2017-12-23T00:02:14.350Z,20.10
2017-12-23T00:04:42.366Z,20.10
2017-12-23T00:07:10.518Z,20.00
2017-12-23T00:09:38.575Z,19.90
2017-12-23T00:12:06.582Z,19.90
2017-12-23T00:14:34.771Z,19.90
2017-12-23T00:17:03.542Z,19.70
2017-12-23T00:19:32.328Z,19.80
2017-12-23T00:22:01.239Z,19.80
2017-12-23T00:24:29.262Z,19.80
2017-12-23T00:26:57.322Z,19.70
2017-12-23T00:29:25.441Z,19.70
2017-12-23T00:31:54.506Z,19.70
2017-12-23T00:34:33.198Z,19.70
2017-12-23T00:37:01.201Z,19.70
2017-12-23T00:39:29.246Z,19.60
2017-12-23T00:41:57.393Z,19.60
2017-12-23T00:44:26.175Z,19.60
2017-12-23T00:46:54.967Z,19.70
2017-12-23T00:49:23.850Z,19.60
2017-12-23T00:51:52.646Z,19.60
2017-12-23T00:54:21.410Z,19.60
2017-12-23T00:56:49.556Z,19.60
2017-12-23T00:59:17.603Z,19.50
2017-12-23T01:01:45.643Z,19.50
2017-12-23T01:04:13.775Z,19.50
2017-12-23T01:06:41.838Z,19.50
2017-12-23T01:09:09.912Z,19.50
2017-12-23T01:11:38.058Z,19.50
2017-12-23T01:14:06.844Z,19.40
2017-12-23T01:16:35.674Z,19.40
2017-12-23T01:19:03.851Z,19.40
2017-12-23T01:21:31.880Z,19.40
2017-12-23T01:23:59.885Z,19.30
2017-12-23T01:26:28.123Z,19.30
2017-12-23T01:28:56.196Z,19.30
2017-12-23T01:31:24.247Z,19.30
2017-12-23T01:33:52.559Z,19.20
2017-12-23T01:36:21.415Z,19.20
2017-12-23T01:38:49.431Z,19.20
2017-12-23T01:41:18.310Z,19.20
2017-12-23T01:43:46.327Z,19.20
2017-12-23T01:46:14.436Z,19.20
2017-12-23T01:48:42.575Z,19.30
2017-12-23T01:51:10.627Z,19.30
2017-12-23T01:53:39.427Z,19.20
2017-12-23T01:56:07.663Z,19.20
2017-12-23T01:58:35.686Z,19.20
2017-12-23T02:01:03.738Z,19.20
2017-12-23T02:03:32.623Z,19.20
2017-12-23T02:06:01.496Z,19.20
2017-12-23T02:08:29.519Z,19.20
2017-12-23T02:10:57.638Z,19.20
2017-12-23T02:13:25.663Z,19.20
2017-12-23T02:15:53.715Z,19.20
2017-12-23T02:18:22.691Z,19.20
2017-12-23T02:20:50.706Z,19.20
2017-12-23T02:23:18.718Z,19.20
2017-12-23T02:25:47.007Z,19.10
2017-12-23T02:28:15.060Z,19.10
2017-12-23T02:30:43.107Z,19.00
2017-12-23T02:33:11.272Z,19.00
2017-12-23T02:35:39.478Z,19.00
2017-12-23T02:38:07.555Z,19.00
2017-12-23T02:40:35.695Z,19.00
2017-12-23T02:43:03.710Z,19.00
2017-12-23T02:45:31.735Z,18.90
2017-12-23T02:47:59.879Z,19.00
2017-12-23T02:50:28.681Z,19.00
2017-12-23T02:52:57.442Z,18.90
2017-12-23T02:55:25.623Z,18.90
2017-12-23T02:57:53.667Z,19.00
2017-12-23T03:00:21.682Z,19.00
2017-12-23T03:02:50.562Z,18.90
2017-12-23T03:05:18.602Z,18.90
2017-12-23T03:07:46.639Z,18.90
2017-12-23T03:10:14.782Z,18.80
2017-12-23T03:12:42.794Z,18.90
2017-12-23T03:15:11.034Z,18.90
2017-12-23T03:17:39.189Z,18.90
2017-12-23T03:20:07.248Z,18.90
2017-12-23T03:22:35.300Z,18.90
2017-12-23T03:25:03.451Z,19.00
2017-12-23T03:27:32.218Z,18.90
2017-12-23T03:30:01.015Z,18.90
2017-12-23T03:32:29.894Z,18.90
2017-12-23T03:34:57.947Z,18.90
2017-12-23T03:37:26.104Z,19.00
2017-12-23T03:39:54.262Z,19.00
2017-12-23T03:42:22.311Z,18.80
2017-12-23T03:44:51.081Z,19.10
2017-12-23T03:47:20.000Z,19.10
2017-12-23T03:49:48.052Z,19.00
2017-12-23T03:52:16.844Z,19.10
2017-12-23T03:54:45.767Z,19.10
2017-12-23T03:57:13.794Z,19.00
2017-12-23T03:59:41.806Z,19.00
2017-12-23T04:02:09.976Z,18.90
2017-12-23T04:04:38.007Z,18.90
2017-12-23T04:07:06.059Z,18.80
2017-12-23T04:09:34.209Z,18.80
2017-12-23T04:12:02.270Z,18.80
2017-12-23T04:14:30.335Z,18.80
2017-12-23T04:16:58.546Z,18.90
2017-12-23T04:19:26.607Z,18.90
2017-12-23T04:21:54.626Z,18.80
2017-12-23T04:24:23.532Z,18.90
2017-12-23T04:26:52.332Z,18.90
2017-12-23T04:29:20.375Z,18.90
2017-12-23T04:31:49.298Z,18.80
2017-12-23T04:34:17.322Z,18.80
2017-12-23T04:36:45.452Z,18.90
2017-12-23T04:39:13.715Z,18.80
2017-12-23T04:41:41.775Z,18.90
2017-12-23T04:44:10.531Z,19.00
2017-12-23T04:46:38.791Z,19.00
2017-12-23T04:49:06.848Z,19.10
2017-12-23T04:51:34.919Z,19.20
2017-12-23T04:54:03.065Z,19.30
2017-12-23T04:56:31.915Z,19.30
2017-12-23T04:58:59.991Z,19.30
2017-12-23T05:01:28.151Z,19.20
2017-12-23T05:03:56.223Z,19.30
2017-12-23T05:06:24.306Z,19.30
2017-12-23T05:08:52.503Z,19.40
2017-12-23T05:11:21.271Z,19.60
2017-12-23T05:13:49.519Z,19.60
2017-12-23T05:16:17.747Z,19.60
2017-12-23T05:18:46.561Z,19.70
2017-12-23T05:21:14.579Z,19.70
2017-12-23T05:23:43.788Z,19.70
2017-12-23T05:26:12.671Z,19.90
2017-12-23T05:28:40.815Z,19.90
2017-12-23T05:31:08.954Z,19.90
2017-12-23T05:33:37.089Z,20.00
2017-12-23T05:36:05.655Z,20.10
2017-12-23T05:38:33.871Z,20.10
2017-12-23T05:41:02.071Z,20.10
2017-12-23T05:43:35.096Z,20.30
2017-12-23T05:46:04.060Z,20.20
2017-12-23T05:48:32.118Z,20.30
2017-12-23T05:51:00.885Z,20.40
2017-12-23T05:53:29.096Z,20.40
2017-12-23T05:55:57.311Z,20.40
2017-12-23T05:58:25.387Z,20.50
2017-12-23T06:00:54.118Z,20.50
2017-12-23T06:03:22.973Z,20.80
2017-12-23T06:05:51.015Z,20.80
2017-12-23T06:08:19.195Z,21.00
2017-12-23T06:10:51.610Z,20.90
2017-12-23T06:13:20.276Z,21.00
2017-12-23T06:15:49.035Z,21.00
2017-12-23T06:18:17.099Z,21.00
2017-12-23T06:20:45.795Z,21.10
2017-12-23T06:23:14.777Z,21.20
2017-12-23T06:25:42.877Z,21.40
2017-12-23T06:28:11.064Z,21.70
2017-12-23T06:30:39.115Z,21.70
2017-12-23T06:33:07.139Z,21.90
2017-12-23T06:35:35.463Z,22.00
2017-12-23T06:38:03.517Z,22.10
2017-12-23T06:40:32.302Z,22.40
2017-12-23T06:43:01.790Z,22.40
2017-12-23T06:45:34.958Z,22.50
2017-12-23T06:48:03.284Z,22.60
2017-12-23T06:50:32.053Z,22.90
2017-12-23T06:53:00.844Z,22.80
2017-12-23T06:55:29.770Z,22.90
2017-12-23T06:58:07.553Z,23.00
2017-12-23T07:49:46.103Z,25.00
2017-12-23T07:52:14.888Z,25.20
2017-12-23T07:54:43.639Z,25.30
2017-12-23T07:57:11.802Z,25.30
2017-12-23T07:59:39.834Z,25.50
2017-12-23T08:02:07.855Z,25.60
2017-12-23T08:04:35.982Z,25.70
2017-12-23T08:07:04.007Z,25.70
2017-12-23T08:09:32.035Z,25.80
2017-12-23T08:12:00.173Z,25.80
2017-12-23T08:14:28.926Z,26.10
2017-12-23T08:16:56.936Z,26.10
2017-12-23T08:19:25.859Z,26.20
2017-12-23T08:21:54.001Z,26.20
2017-12-23T08:24:22.836Z,26.20
2017-12-23T08:26:51.026Z,26.30
2017-12-23T08:29:19.075Z,26.30
2017-12-23T08:31:47.095Z,26.40
2017-12-23T08:34:15.261Z,26.40
2017-12-23T08:36:43.452Z,26.50
2017-12-23T08:39:11.481Z,26.50
2017-12-23T08:41:39.636Z,26.60
2017-12-23T08:44:07.667Z,26.60
2017-12-23T08:46:35.823Z,26.70
2017-12-23T08:49:03.958Z,26.70
2017-12-23T08:51:33.049Z,26.60
2017-12-23T08:54:01.092Z,26.60
2017-12-23T08:56:29.339Z,26.60
2017-12-23T08:58:57.350Z,26.60
2017-12-23T09:01:26.144Z,26.90
2017-12-23T09:03:55.034Z,27.00
2017-12-23T09:06:23.858Z,27.00
2017-12-23T09:08:51.927Z,27.00
2017-12-23T09:11:20.075Z,27.00
2017-12-23T09:13:48.887Z,26.90
2017-12-23T09:16:16.967Z,26.90
2017-12-23T09:18:45.151Z,26.80
2017-12-23T09:21:13.175Z,26.80
2017-12-23T09:23:41.186Z,26.80
2017-12-23T09:26:09.417Z,27.00
2017-12-23T09:28:39.925Z,26.90
2017-12-23T09:31:08.344Z,26.90
2017-12-23T09:33:37.772Z,27.00
2017-12-23T09:36:05.863Z,26.90
2017-12-23T09:38:33.911Z,27.00
2017-12-23T09:41:02.795Z,27.00
2017-12-23T09:43:31.550Z,27.00
2017-12-23T09:45:59.579Z,26.90
2017-12-23T09:48:27.756Z,27.00
2017-12-23T09:50:55.768Z,27.00
2017-12-23T09:53:24.390Z,27.00
2017-12-23T09:55:53.359Z,26.90
2017-12-23T09:58:21.478Z,26.90
2017-12-23T10:00:49.576Z,26.90
2017-12-23T10:03:17.727Z,26.90
2017-12-23T10:05:47.094Z,27.00
2017-12-23T10:08:16.893Z,27.00
2017-12-23T10:10:45.188Z,27.00
2017-12-23T10:13:14.034Z,26.90
2017-12-23T10:15:42.046Z,26.90
2017-12-23T10:18:10.216Z,26.90
2017-12-23T10:20:38.235Z,26.80
2017-12-23T10:23:06.264Z,26.60
2017-12-23T10:25:34.463Z,26.50
2017-12-23T10:28:03.256Z,26.40
2017-12-23T10:30:31.282Z,26.40
2017-12-23T10:32:59.418Z,26.40
2017-12-23T10:35:29.762Z,26.30
2017-12-23T10:38:00.708Z,26.30
2017-12-23T10:40:28.826Z,26.30
2017-12-23T10:42:57.578Z,26.20
2017-12-23T10:45:25.627Z,26.20
2017-12-23T10:47:53.795Z,26.20
2017-12-23T10:50:21.847Z,26.10
2017-12-23T10:52:50.726Z,26.20
2017-12-23T10:55:19.675Z,26.00
2017-12-23T10:57:47.728Z,26.00
2017-12-23T11:00:15.870Z,25.90
2017-12-23T11:02:44.647Z,25.80
2017-12-23T11:05:12.807Z,25.80
2017-12-23T11:07:40.958Z,25.80
2017-12-23T11:10:09.017Z,25.60
2017-12-23T11:12:37.178Z,25.70
2017-12-23T11:15:05.315Z,25.60
2017-12-23T11:17:34.148Z,25.20
2017-12-23T11:20:02.228Z,25.20
2017-12-23T11:22:30.379Z,25.30
2017-12-23T11:24:59.259Z,25.30
2017-12-23T11:27:28.083Z,25.20
2017-12-23T11:29:56.235Z,25.20
2017-12-23T11:32:24.998Z,25.30
2017-12-23T11:34:53.015Z,25.20
2017-12-23T11:37:21.148Z,25.10
2017-12-23T11:39:49.898Z,25.00
2017-12-23T11:42:17.930Z,25.00
2017-12-23T11:44:46.851Z,24.90
2017-12-23T11:47:14.914Z,24.90
2017-12-23T11:49:42.935Z,24.80
2017-12-23T11:52:11.111Z,24.90
2017-12-23T11:54:39.164Z,24.90
2017-12-23T11:57:07.383Z,25.00
2017-12-23T11:59:36.275Z,24.80
2017-12-23T12:02:05.072Z,24.80
2017-12-23T12:04:33.877Z,24.80
2017-12-23T12:07:02.084Z,24.80
2017-12-23T12:09:30.098Z,24.80
2017-12-23T12:11:58.892Z,24.90
2017-12-23T12:14:27.771Z,24.80
2017-12-23T12:16:56.564Z,24.80
2017-12-23T12:19:25.330Z,24.70
2017-12-23T12:21:53.491Z,24.70
2017-12-23T12:24:21.506Z,24.70
2017-12-23T12:26:50.267Z,24.70
2017-12-23T12:29:19.607Z,24.60
2017-12-23T12:31:49.305Z,24.70
2017-12-23T12:34:18.094Z,24.70
2017-12-23T12:36:47.099Z,24.70
2017-12-23T12:39:15.855Z,24.70
2017-12-23T12:41:43.892Z,24.70
2017-12-23T12:44:12.116Z,24.70
2017-12-23T12:46:40.268Z,24.70
2017-12-23T12:49:08.307Z,24.60
2017-12-23T12:51:36.469Z,24.60
2017-12-23T12:54:04.612Z,24.50
2017-12-23T12:56:32.734Z,24.50
2017-12-23T12:59:01.048Z,24.50
2017-12-23T13:01:29.059Z,24.40
2017-12-23T13:03:57.830Z,24.40
2017-12-23T13:06:26.066Z,24.40
2017-12-23T13:08:54.103Z,24.40
2017-12-23T13:11:22.130Z,24.40
2017-12-23T13:13:50.297Z,24.30
2017-12-23T13:16:18.342Z,24.20
2017-12-23T13:18:46.350Z,24.10
2017-12-23T13:21:14.492Z,24.10
2017-12-23T13:23:42.521Z,24.10
2017-12-23T13:26:11.347Z,24.10
2017-12-23T13:28:39.510Z,24.10
2017-12-23T13:31:07.572Z,24.10
2017-12-23T13:33:36.322Z,24.10
2017-12-23T13:36:04.731Z,24.10
2017-12-23T13:38:33.520Z,24.00
2017-12-23T13:41:02.283Z,24.00
2017-12-23T13:43:30.435Z,24.00
2017-12-23T13:45:58.528Z,23.90
2017-12-23T13:48:26.556Z,23.90
2017-12-23T13:50:54.724Z,23.90
2017-12-23T13:53:22.727Z,23.80
2017-12-23T13:55:50.968Z,23.80
2017-12-23T13:58:19.849Z,23.70
2017-12-23T14:00:48.782Z,23.70
2017-12-23T14:03:16.810Z,23.70
2017-12-23T14:05:45.707Z,23.70
2017-12-23T14:08:14.519Z,23.70
2017-12-23T14:10:42.609Z,23.70
2017-12-23T14:13:10.759Z,23.70
2017-12-23T14:15:38.843Z,23.70
2017-12-23T14:18:06.915Z,23.70
2017-12-23T14:20:35.051Z,23.80
2017-12-23T14:23:03.062Z,23.70
2017-12-23T14:25:31.078Z,23.70
2017-12-23T14:27:59.223Z,23.70
2017-12-23T14:30:27.243Z,23.60
2017-12-23T14:32:56.011Z,23.60
2017-12-23T14:35:24.201Z,23.60
2017-12-23T14:37:52.247Z,23.60
2017-12-23T14:40:20.262Z,23.50
2017-12-23T14:42:49.171Z,23.40
2017-12-23T14:45:17.212Z,23.40
2017-12-23T14:47:45.277Z,23.40
2017-12-23T14:50:13.444Z,23.40
2017-12-23T14:52:41.523Z,23.40
2017-12-23T14:55:09.539Z,23.40
2017-12-23T14:57:37.692Z,23.40
2017-12-23T15:00:06.455Z,23.40
2017-12-23T15:02:34.603Z,23.30
2017-12-23T15:05:02.774Z,23.30
2017-12-23T15:07:30.863Z,23.30
2017-12-23T15:09:58.904Z,23.30
2017-12-23T15:12:27.116Z,23.30
2017-12-23T15:14:55.130Z,23.30
2017-12-23T15:17:23.883Z,23.30
2017-12-23T15:19:52.035Z,23.20
2017-12-23T15:22:20.100Z,23.30
2017-12-23T15:24:48.183Z,23.30
2017-12-23T15:27:16.315Z,23.20
2017-12-23T15:29:45.113Z,23.20
2017-12-23T15:32:13.123Z,23.20
2017-12-23T15:34:41.306Z,23.20
2017-12-23T15:37:09.355Z,23.20
2017-12-23T15:39:37.407Z,23.20
2017-12-23T15:42:05.535Z,23.10
2017-12-23T15:44:33.562Z,23.10
2017-12-23T15:47:01.615Z,23.10
2017-12-23T15:49:30.494Z,23.10
2017-12-23T15:51:59.293Z,23.10
2017-12-23T15:54:28.063Z,23.00
2017-12-23T15:56:57.051Z,23.10
2017-12-23T15:59:25.104Z,23.00
2017-12-23T16:01:53.147Z,23.10
2017-12-23T16:04:21.500Z,23.10
2017-12-23T16:06:50.480Z,23.00
2017-12-23T16:09:19.301Z,23.00
2017-12-23T16:11:47.450Z,23.00
2017-12-23T16:14:16.224Z,23.00
2017-12-23T16:16:44.359Z,23.00
2017-12-23T16:19:12.491Z,23.00
2017-12-23T16:21:41.301Z,23.00
2017-12-23T16:24:09.327Z,23.00
2017-12-23T16:26:37.629Z,23.00
2017-12-23T16:29:06.432Z,23.00
2017-12-23T16:31:35.206Z,22.90
2017-12-23T16:34:04.099Z,22.90
2017-12-23T16:36:32.939Z,22.90
2017-12-23T16:39:00.998Z,22.90
2017-12-23T16:41:29.174Z,22.90
2017-12-23T16:43:57.828Z,22.90
2017-12-23T16:46:28.082Z,22.90
2017-12-23T16:48:56.242Z,22.80
2017-12-23T16:51:24.330Z,22.80
2017-12-23T16:53:52.392Z,22.80
2017-12-23T16:56:20.639Z,22.80
2017-12-23T16:58:48.699Z,22.80
2017-12-23T17:01:16.729Z,22.70
2017-12-23T17:03:44.933Z,22.80
2017-12-23T17:06:13.244Z,22.70
2017-12-23T17:08:42.112Z,22.70
2017-12-23T17:11:10.452Z,22.70
2017-12-23T17:13:38.458Z,22.60
2017-12-23T17:16:06.702Z,22.60
2017-12-23T17:18:35.019Z,22.60
2017-12-23T17:21:03.243Z,22.60
2017-12-23T17:23:31.307Z,22.60
2017-12-23T17:26:00.276Z,22.60
2017-12-23T17:28:39.795Z,22.60
2017-12-23T17:31:07.980Z,22.60
2017-12-23T17:33:36.276Z,22.60
2017-12-23T17:36:04.598Z,22.60
2017-12-23T17:38:32.780Z,22.70
2017-12-23T17:41:00.869Z,22.70
2017-12-23T17:43:28.891Z,22.70
2017-12-23T17:45:57.827Z,22.60
2017-12-23T17:48:25.983Z,22.60
2017-12-23T17:50:54.083Z,22.60
2017-12-23T17:53:22.222Z,22.60
2017-12-23T17:55:50.355Z,22.50
2017-12-23T17:58:18.412Z,22.50
2017-12-23T18:00:46.708Z,22.50
2017-12-23T18:03:14.760Z,22.40
2017-12-23T18:05:42.809Z,22.40
2017-12-23T18:08:11.136Z,22.40
2017-12-23T18:10:39.180Z,22.30
2017-12-23T18:13:07.237Z,22.40
2017-12-23T18:15:35.484Z,22.40
2017-12-23T18:18:04.267Z,22.30
2017-12-23T18:20:33.072Z,22.30
2017-12-23T18:23:01.206Z,22.30
2017-12-23T18:25:29.256Z,22.20
2017-12-23T18:27:57.343Z,22.20
2017-12-23T18:30:25.544Z,22.20
2017-12-23T18:32:54.340Z,22.10
2017-12-23T18:35:23.167Z,22.10
2017-12-23T18:37:51.314Z,22.10
2017-12-23T18:40:20.115Z,22.10
2017-12-23T18:42:48.135Z,22.10
2017-12-23T18:45:16.280Z,22.10
2017-12-23T18:47:44.348Z,22.00
2017-12-23T18:50:12.384Z,22.10
2017-12-23T18:52:41.344Z,22.00
2017-12-23T18:55:09.383Z,22.00
2017-12-23T18:57:37.444Z,22.00
2017-12-23T19:00:05.632Z,22.00
2017-12-23T19:02:33.642Z,21.90
2017-12-23T19:05:01.700Z,21.90
2017-12-23T19:07:29.843Z,21.80
2017-12-23T19:09:58.028Z,21.80
2017-12-23T19:12:26.043Z,21.60
2017-12-23T19:14:54.187Z,21.60
2017-12-23T19:17:22.239Z,21.50
2017-12-23T19:19:50.300Z,21.40
2017-12-23T19:22:18.434Z,21.40
2017-12-23T19:24:46.451Z,21.30
2017-12-23T19:27:14.519Z,21.20
2017-12-23T19:29:42.682Z,21.20
2017-12-23T19:32:11.483Z,21.00
2017-12-23T19:34:39.536Z,21.00
2017-12-23T19:37:08.419Z,20.80
2017-12-23T19:39:36.442Z,20.80
2017-12-23T19:42:04.483Z,20.60
2017-12-23T19:44:33.376Z,20.70
2017-12-23T19:47:02.147Z,20.50
2017-12-23T19:49:30.158Z,20.50
2017-12-23T19:51:58.294Z,20.40
2017-12-23T19:54:27.091Z,20.60
2017-12-23T19:56:55.910Z,20.50
2017-12-23T19:59:24.091Z,20.50
2017-12-23T20:01:52.152Z,20.50
2017-12-23T20:04:20.170Z,20.40
2017-12-23T20:06:48.379Z,20.30
2017-12-23T20:09:17.142Z,20.30
2017-12-23T20:11:45.294Z,20.30
2017-12-23T20:14:13.468Z,20.40
2017-12-23T20:16:41.528Z,20.50
2017-12-23T20:19:09.538Z,20.50
2017-12-23T20:21:37.736Z,20.40
2017-12-23T20:24:06.527Z,20.30
2017-12-23T20:26:35.379Z,20.30
2017-12-23T20:29:03.558Z,20.30
2017-12-23T20:31:31.627Z,20.40
2017-12-23T20:33:59.644Z,20.50
2017-12-23T20:36:28.612Z,20.50
2017-12-23T20:38:56.668Z,20.50
2017-12-23T20:41:24.679Z,20.50
2017-12-23T20:43:53.574Z,20.60
2017-12-23T20:46:22.390Z,20.40
2017-12-23T20:48:50.410Z,20.40
2017-12-23T20:51:18.591Z,20.50
2017-12-23T20:53:46.613Z,20.50
2017-12-23T20:56:14.724Z,20.40
2017-12-23T20:58:42.867Z,20.50
2017-12-23T21:01:10.916Z,20.20
2017-12-23T21:03:38.951Z,20.30
2017-12-23T21:06:07.098Z,20.40
2017-12-23T21:08:35.115Z,20.30
2017-12-23T21:11:03.870Z,20.40
2017-12-23T21:13:32.167Z,20.40
2017-12-23T21:16:00.218Z,20.20
2017-12-23T21:18:28.222Z,20.30
2017-12-23T21:20:57.103Z,20.40
2017-12-23T21:23:25.111Z,20.40
2017-12-23T21:25:53.291Z,20.40
2017-12-23T21:28:21.473Z,20.40
2017-12-23T21:30:49.520Z,20.20
2017-12-23T21:33:18.283Z,20.20
2017-12-23T21:35:46.452Z,20.10
2017-12-23T21:38:14.489Z,20.30
2017-12-23T21:40:42.552Z,20.40
2017-12-23T21:43:10.719Z,20.40
2017-12-23T21:45:38.803Z,20.40
2017-12-23T21:48:06.822Z,20.30
2017-12-23T21:50:34.973Z,20.30
2017-12-23T21:53:02.997Z,20.30
2017-12-23T21:55:31.835Z,20.40
2017-12-23T21:58:00.012Z,20.40
2017-12-23T22:00:28.131Z,20.40
2017-12-23T22:02:56.920Z,20.10
2017-12-23T22:05:25.822Z,20.10
2017-12-23T22:07:53.855Z,20.10
2017-12-23T22:10:21.907Z,19.90
2017-12-23T22:12:50.055Z,20.00
2017-12-23T22:15:18.198Z,20.10
2017-12-23T22:17:46.996Z,20.20
2017-12-23T22:20:15.919Z,20.20
2017-12-23T22:22:43.955Z,20.10
2017-12-23T22:25:12.714Z,20.30
2017-12-23T22:27:40.880Z,20.20
2017-12-23T22:30:08.930Z,20.30
2017-12-23T22:32:36.942Z,20.00
2017-12-23T22:35:05.111Z,19.90
2017-12-23T22:37:33.142Z,19.80
2017-12-23T22:40:01.174Z,19.90
2017-12-23T22:42:35.181Z,20.10
2017-12-23T22:45:04.083Z,20.00
2017-12-23T22:47:32.846Z,19.90
2017-12-23T22:50:00.977Z,19.80
2017-12-23T22:52:28.994Z,19.80
2017-12-23T22:54:57.167Z,19.60
2017-12-23T22:57:25.335Z,19.70
2017-12-23T22:59:53.354Z,19.60
2017-12-23T23:02:22.114Z,19.70
2017-12-23T23:04:50.279Z,19.70
2017-12-23T23:07:18.287Z,19.80
2017-12-23T23:09:47.084Z,19.80
2017-12-23T23:12:15.263Z,19.80
2017-12-23T23:14:43.323Z,19.80
2017-12-23T23:17:12.235Z,19.90
2017-12-23T23:19:40.375Z,19.90
2017-12-23T23:22:08.407Z,19.60
2017-12-23T23:24:36.456Z,19.70
2017-12-23T23:27:04.635Z,19.80
2017-12-23T23:29:32.658Z,19.80
2017-12-23T23:32:00.675Z,19.80
2017-12-23T23:34:28.822Z,19.70
2017-12-23T23:36:57.593Z,19.80
2017-12-23T23:39:25.614Z,19.80
2017-12-23T23:41:53.844Z,19.80
2017-12-23T23:44:21.887Z,19.80
2017-12-23T23:46:49.940Z,19.60
